Time;durP1;ratioP1;P1;durP2;ratioP2;P2;SDS_P1;SDS_P2;PMS_P1;PMS_P2;Temp;Humidity;BMP_temperature;BMP_pressure;BME280_temperature;BME280_humidity;BME280_pressure;Samples;Min_cycle;Max_cycle;Signal;HPM_P1;HPM_P2
2022/12/05 00:03:37;;;;;;;72.63;28.55;;;;;;;3.71;100.00;100601.22;8258571;28;20096;-50
2022/12/05 00:07:38;;;;;;;74.93;30.17;;;;;;;3.67;100.00;100600.56;8259320;28;20500;-54
2022/12/05 00:11:40;;;;;;;70.90;29.08;;;;;;;3.67;100.00;100600.56;8259142;28;20042;-50
2022/12/05 00:15:41;;;;;;;79.07;31.55;;;;;;;3.67;100.00;100595.22;8259764;28;20541;-51
2022/12/05 00:19:41;;;;;;;83.22;31.35;;;;;;;3.69;100.00;100587.94;8259792;28;20400;-52
2022/12/05 00:23:42;;;;;;;76.70;30.80;;;;;;;3.70;100.00;100595.03;8259297;28;20113;-50
2022/12/05 00:27:43;;;;;;;81.60;31.52;;;;;;;3.70;100.00;100603.03;8259125;28;20481;-50
2022/12/05 00:32:04;;;;;;;80.30;30.92;;;;;;;3.71;100.00;100594.06;8258202;28;20047;-50
2022/12/05 00:36:09;;;;;;;89.80;31.45;;;;;;;3.71;100.00;100595.84;8259121;28;20081;-50
2022/12/05 00:40:10;;;;;;;81.88;32.13;;;;;;;3.70;100.00;100597.69;8259175;28;20046;-50
2022/12/05 00:44:12;;;;;;;82.50;32.25;;;;;;;3.69;100.00;100601.31;8258947;28;20559;-49
2022/12/05 00:48:12;;;;;;;80.40;32.17;;;;;;;3.70;100.00;100594.16;8259010;28;20466;-50
2022/12/05 00:52:13;;;;;;;80.53;32.63;;;;;;;3.69;100.00;100593.28;8257812;28;20078;-50
2022/12/05 00:56:17;;;;;;;76.45;32.33;;;;;;;3.70;100.00;100600.38;8258873;28;20030;-51
2022/12/05 01:00:18;;;;;;;82.82;31.73;;;;;;;3.73;100.00;100604.66;8258172;28;20038;-49
2022/12/05 01:04:22;;;;;;;89.18;32.15;;;;;;;3.73;100.00;100608.16;8257853;28;20120;-51
2022/12/05 01:08:23;;;;;;;83.70;31.63;;;;;;;3.71;100.00;100615.44;8258719;28;20046;-50
2022/12/05 01:12:24;;;;;;;86.10;31.95;;;;;;;3.67;100.00;100600.56;8257573;28;20050;-50
2022/12/05 01:16:30;;;;;;;84.57;32.92;;;;;;;3.70;100.00;100612.88;8256082;28;20044;-50
2022/12/05 01:20:30;;;;;;;86.68;30.85;;;;;;;3.67;100.00;100611.25;8258177;28;20038;-49
2022/12/05 01:24:31;;;;;;;76.78;30.73;;;;;;;3.68;100.00;100612.97;8257299;28;20073;-50
2022/12/05 01:28:32;;;;;;;92.10;31.48;;;;;;;3.65;100.00;100607.81;8257344;28;20057;-50
2022/12/05 01:32:32;;;;;;;78.38;30.58;;;;;;;3.60;100.00;100615.22;8256605;28;20061;-50
2022/12/05 01:36:33;;;;;;;88.00;32.90;;;;;;;3.55;100.00;100622.69;8257175;28;20041;-50
2022/12/05 01:40:35;;;;;;;85.25;31.42;;;;;;;3.51;100.00;100620.31;8257393;28;20056;-50
2022/12/05 01:48:50;;;;;;;81.68;31.35;;;;;;;3.45;100.00;100628.69;8405709;27;20476;-49
2022/12/05 01:52:51;;;;;;;87.10;32.05;;;;;;;3.43;100.00;100634.13;8399103;27;20401;-49
2022/12/05 01:56:57;;;;;;;88.38;30.60;;;;;;;3.39;100.00;100635.25;8398898;27;20115;-51
2022/12/05 02:00:58;;;;;;;79.32;30.30;;;;;;;3.25;100.00;100621.88;8366918;28;20044;-50
2022/12/05 02:05:05;;;;;;;74.15;29.75;;;;;;;3.21;100.00;100633.72;8365284;28;20121;-48
2022/12/05 02:09:06;;;;;;;78.22;30.13;;;;;;;3.21;100.00;100625.69;8365325;28;20410;-49
2022/12/05 02:13:28;;;;;;;81.53;29.17;;;;;;;3.20;100.00;100628.47;8365224;28;20040;-50
2022/12/05 02:17:57;;;;;;;78.80;27.70;;;;;;;3.16;100.00;100627.78;8365395;28;20120;-51
2022/12/05 02:22:27;;;;;;;73.55;28.20;;;;;;;3.08;100.00;100632.69;8384504;27;20090;-49
2022/12/05 02:26:46;;;;;;;77.25;28.88;;;;;;;2.96;100.00;100622.75;8380466;28;20036;-49
2022/12/05 02:35:12;;;;;;;72.15;27.27;;;;;;;2.83;100.00;100627.09;8346878;27;20939;-52
2022/12/05 02:39:21;;;;;;;73.20;28.20;;;;;;;2.74;100.00;100635.63;8348787;28;20453;-50
2022/12/05 02:43:39;;;;;;;79.65;27.90;;;;;;;2.64;100.00;100638.91;8346639;28;20128;-50
2022/12/05 02:47:45;;;;;;;75.65;29.25;;;;;;;2.52;100.00;100637.81;8344262;28;20052;-52
2022/12/05 02:51:50;;;;;;;85.78;29.63;;;;;;;2.44;100.00;100629.38;8348867;28;20150;-50
2022/12/05 02:55:51;;;;;;;79.28;27.67;;;;;;;2.36;100.00;100631.63;8348914;28;20037;-50
2022/12/05 02:59:52;;;;;;;79.68;28.67;;;;;;;2.39;100.00;100631.44;8349722;28;20502;-51
2022/12/05 03:03:54;;;;;;;74.70;28.23;;;;;;;2.37;100.00;100622.66;8348534;28;20418;-53
2022/12/05 03:07:59;;;;;;;90.70;29.35;;;;;;;2.28;100.00;100639.19;8349076;28;20037;-50
2022/12/05 03:12:09;;;;;;;87.88;29.23;;;;;;;2.27;100.00;100641.94;8348802;28;20037;-52
2022/12/05 03:16:16;;;;;;;72.78;28.60;;;;;;;2.30;100.00;100647.09;8344140;28;20033;-53
2022/12/05 03:20:27;;;;;;;78.13;26.95;;;;;;;2.29;100.00;100646.25;8351287;28;20045;-53
2022/12/05 03:24:29;;;;;;;78.15;26.90;;;;;;;2.24;100.00;100648.31;8349872;28;20033;-51
2022/12/05 03:28:57;;;;;;;76.60;28.58;;;;;;;2.23;100.00;100645.72;8349915;28;20532;-52
2022/12/05 03:33:19;;;;;;;73.20;26.20;;;;;;;2.20;100.00;100652.09;8352031;28;20048;-53
2022/12/05 03:37:27;;;;;;;76.30;26.33;;;;;;;2.12;100.00;100659.66;8379122;28;20089;-54
2022/12/05 03:41:40;;;;;;;84.07;28.00;;;;;;;2.12;100.00;100666.78;8316160;28;20054;-50
2022/12/05 03:45:51;;;;;;;85.37;27.83;;;;;;;2.09;100.00;100665.16;8297716;28;20092;-51
2022/12/05 03:49:59;;;;;;;87.60;28.75;;;;;;;2.08;100.00;100669.63;8306054;28;20040;-50
2022/12/05 03:54:07;;;;;;;96.45;29.77;;;;;;;2.18;100.00;100670.00;8326705;28;20041;-52
2022/12/05 03:58:14;;;;;;;87.50;28.38;;;;;;;2.17;100.00;100668.28;8325721;28;20465;-53
2022/12/05 04:02:23;;;;;;;78.30;28.55;;;;;;;2.13;100.00;100666.69;8325597;28;20605;-50
2022/12/05 04:06:30;;;;;;;82.63;27.88;;;;;;;2.11;100.00;100678.41;8325129;28;20121;-50
2022/12/05 04:10:47;;;;;;;91.90;29.70;;;;;;;2.13;100.00;100676.53;8325604;28;20494;-52
2022/12/05 04:14:52;;;;;;;78.65;28.50;;;;;;;2.13;100.00;100679.19;8325223;28;20046;-49
2022/12/05 04:19:07;;;;;;;73.05;27.77;;;;;;;2.13;100.00;100685.38;8325070;28;20041;-49
2022/12/05 04:23:09;;;;;;;75.68;26.27;;;;;;;2.15;100.00;100679.94;8314054;28;20064;-50
2022/12/05 04:31:52;;;;;;;86.28;27.90;;;;;;;2.14;100.00;100678.22;8350453;27;20399;-48
2022/12/05 04:36:00;;;;;;;76.25;27.25;;;;;;;2.14;100.00;100684.44;8349950;28;20140;-49
2022/12/05 04:40:09;;;;;;;86.65;28.80;;;;;;;2.12;100.00;100688.13;8350378;28;20075;-50
2022/12/05 04:44:15;;;;;;;92.82;27.95;;;;;;;2.13;100.00;100688.03;8348957;28;20037;-48
2022/12/05 04:48:16;;;;;;;79.85;27.92;;;;;;;2.15;100.00;100696.81;8349771;28;20029;-49
2022/12/05 04:52:17;;;;;;;80.25;27.55;;;;;;;2.13;100.00;100682.69;8349605;28;20136;-49
2022/12/05 04:56:22;;;;;;;80.75;28.05;;;;;;;2.15;100.00;100691.47;8348419;28;20431;-52
2022/12/05 05:00:23;;;;;;;78.35;26.05;;;;;;;2.14;100.00;100681.78;8341545;28;20128;-49
2022/12/05 05:04:30;;;;;;;85.72;27.98;;;;;;;2.16;100.00;100687.88;8311745;28;20159;-49
2022/12/05 05:08:31;;;;;;;82.22;27.55;;;;;;;2.11;100.00;100681.94;8313409;28;20033;-48
2022/12/05 05:12:31;;;;;;;74.63;26.73;;;;;;;2.14;100.00;100687.09;8324115;28;20044;-48
2022/12/05 05:16:36;;;;;;;79.78;27.10;;;;;;;2.10;100.00;100682.03;8345197;28;20503;-50
2022/12/05 05:20:36;;;;;;;;;;;;;;;2.13;100.00;100696.03;8337798;28;20450;-49
2022/12/05 05:24:37;;;;;;;69.65;27.35;;;;;;;2.18;100.00;100691.31;8344387;28;19917;-49
2022/12/05 05:28:37;;;;;;;92.22;35.67;;;;;;;2.16;100.00;100687.88;8346847;28;20061;-49
2022/12/05 05:32:38;;;;;;;119.60;40.58;;;;;;;2.19;100.00;100703.69;8338622;28;20045;-49
2022/12/05 05:36:38;;;;;;;92.15;33.33;;;;;;;2.10;100.00;100696.19;8321424;28;20840;-49
2022/12/05 05:40:39;;;;;;;79.97;29.83;;;;;;;2.12;100.00;100707.66;8322947;28;20582;-52
2022/12/05 05:44:40;;;;;;;84.60;27.55;;;;;;;2.14;100.00;100704.91;8307698;28;20538;-49
2022/12/05 05:48:40;;;;;;;74.63;26.98;;;;;;;2.11;100.00;100705.94;8305779;28;20060;-48
2022/12/05 05:52:41;;;;;;;67.85;26.33;;;;;;;2.10;100.00;100706.84;8341098;28;20037;-50
2022/12/05 05:56:41;;;;;;;84.28;27.08;;;;;;;2.08;100.00;100711.44;8309206;28;20061;-50
2022/12/05 06:00:42;;;;;;;68.50;27.67;;;;;;;2.13;100.00;100714.69;8350734;28;20040;-48
2022/12/05 06:04:43;;;;;;;88.20;27.90;;;;;;;2.13;100.00;100720.03;8358040;28;20080;-50
2022/12/05 06:08:44;;;;;;;85.03;28.95;;;;;;;2.14;100.00;100721.78;8357001;28;20033;-49
2022/12/05 06:12:44;;;;;;;85.13;26.67;;;;;;;2.15;100.00;100718.16;8357945;28;20572;-49
2022/12/05 06:16:45;;;;;;;74.28;26.35;;;;;;;2.09;100.00;100723.81;8329317;28;20463;-50
2022/12/05 06:20:54;;;;;;;79.88;28.50;;;;;;;2.05;100.00;100722.25;8304946;28;20034;-49
2022/12/05 06:24:55;;;;;;;87.82;27.75;;;;;;;2.09;100.00;100734.47;8301628;28;20086;-48
2022/12/05 06:28:55;;;;;;;72.57;27.73;;;;;;;2.19;100.00;100734.84;8306719;28;20096;-49
2022/12/05 06:32:56;;;;;;;77.85;25.38;;;;;;;2.05;100.00;100735.59;8316688;28;20091;-49
2022/12/05 06:36:56;;;;;;;79.22;27.98;;;;;;;2.13;100.00;100738.69;8319357;28;20494;-48
2022/12/05 06:40:57;;;;;;;149.60;44.55;;;;;;;2.12;100.00;100739.66;8282266;28;20579;-49
2022/12/05 06:44:57;;;;;;;94.60;34.75;;;;;;;2.13;100.00;100736.03;8286005;28;20046;-49
2022/12/05 06:48:58;;;;;;;158.23;53.35;;;;;;;2.08;100.00;100738.94;8295852;28;20037;-50
2022/12/05 06:52:58;;;;;;;72.82;28.65;;;;;;;2.11;100.00;100737.94;8307460;28;20406;-50
2022/12/05 06:56:59;;;;;;;80.07;33.00;;;;;;;2.05;100.00;100722.25;8317586;28;20041;-50
2022/12/05 07:02:00;;;;;;;66.70;27.05;;;;;;;2.14;100.00;100737.78;8304010;28;20538;-49
2022/12/05 07:05:20;;;;;;;64.88;25.80;;;;;;;2.18;100.00;100749.97;8295072;28;20034;-49
2022/12/05 07:09:44;;;;;;;63.33;27.42;;;;;;;2.15;100.00;100752.81;8289132;28;20125;-49
2022/12/05 07:13:43;;;;;;;52.27;22.67;;;;;;;2.13;100.00;100762.69;8281897;28;20125;-48
2022/12/05 07:17:44;;;;;;;53.47;23.05;;;;;;;2.14;100.00;100767.09;8294873;28;20046;-48
2022/12/05 07:21:44;;;;;;;59.53;23.75;;;;;;;2.13;100.00;100772.53;8307954;28;20087;-49
2022/12/05 07:25:45;;;;;;;50.58;21.95;;;;;;;2.26;100.00;100771.78;8297528;28;20029;-48
2022/12/05 07:29:45;;;;;;;53.03;21.50;;;;;;;2.24;100.00;100765.66;8293117;28;20507;-50
2022/12/05 07:33:46;;;;;;;53.25;22.98;;;;;;;2.26;100.00;100777.13;8303081;28;20098;-49
2022/12/05 07:37:46;;;;;;;53.22;21.85;;;;;;;2.30;100.00;100781.34;8288305;28;20152;-51
2022/12/05 07:41:47;;;;;;;44.50;20.67;;;;;;;2.29;100.00;100784.94;8291930;28;20563;-50
2022/12/05 07:45:50;;;;;;;52.33;21.23;;;;;;;2.28;100.00;100787.69;8296194;28;20038;-49
2022/12/05 07:49:50;;;;;;;49.40;21.42;;;;;;;2.28;100.00;100788.53;8309763;28;20040;-51
2022/12/05 07:53:51;;;;;;;55.75;22.55;;;;;;;2.31;100.00;100796.38;8295987;28;20068;-50
2022/12/05 07:57:52;;;;;;;51.50;21.85;;;;;;;2.30;100.00;100789.34;8292759;28;20051;-48
2022/12/05 08:01:52;;;;;;;52.17;22.23;;;;;;;2.40;100.00;100797.69;8290252;28;20030;-48
2022/12/05 08:05:52;;;;;;;50.83;21.63;;;;;;;2.40;100.00;100795.88;8305568;28;20042;-49
2022/12/05 08:09:53;;;;;;;47.13;20.27;;;;;;;2.35;100.00;100800.59;8311032;28;20542;-49
2022/12/05 08:13:54;;;;;;;50.33;21.98;;;;;;;2.42;100.00;100804.69;8294467;28;22286;-48
2022/12/05 08:17:54;;;;;;;45.90;20.42;;;;;;;2.39;100.00;100810.19;8289853;28;20530;-48
2022/12/05 08:21:55;;;;;;;49.92;20.75;;;;;;;2.40;100.00;100811.03;8311419;28;20516;-48
2022/12/05 08:25:55;;;;;;;44.30;20.75;;;;;;;2.43;100.00;100808.19;8294235;28;20034;-48
2022/12/05 08:29:56;;;;;;;39.53;18.15;;;;;;;2.44;100.00;100816.13;8295754;28;20499;-48
2022/12/05 08:33:58;;;;;;;50.08;20.17;;;;;;;2.40;100.00;100835.03;8300182;28;20037;-48
2022/12/05 08:37:58;;;;;;;47.10;19.48;;;;;;;2.36;100.00;100834.34;8300381;28;20045;-48
2022/12/05 08:41:59;;;;;;;44.22;20.02;;;;;;;2.39;100.00;100842.19;8300637;28;20495;-49
2022/12/05 08:46:00;;;;;;;44.95;19.45;;;;;;;2.42;100.00;100842.03;8304485;28;20069;-49
2022/12/05 08:50:00;;;;;;;49.13;20.48;;;;;;;2.46;100.00;100840.91;8297898;28;20132;-50
2022/12/05 08:54:02;;;;;;;45.08;19.70;;;;;;;2.41;100.00;100845.63;8304011;28;20069;-48
2022/12/05 08:58:03;;;;;;;46.75;21.38;;;;;;;2.42;100.00;100838.50;8288464;28;20048;-48
2022/12/05 09:02:13;;;;;;;51.80;21.92;;;;;;;2.40;100.00;100851.91;8295624;28;20038;-49
2022/12/05 09:06:19;;;;;;;50.65;21.80;;;;;;;2.52;100.00;100855.72;8286769;28;20053;-49
2022/12/05 09:10:20;;;;;;;51.35;21.92;;;;;;;2.44;100.00;100853.47;8296822;28;20531;-48
2022/12/05 09:14:21;;;;;;;47.70;20.48;;;;;;;2.42;100.00;100847.38;8290449;28;20581;-49
2022/12/05 09:18:21;;;;;;;50.15;22.30;;;;;;;2.38;100.00;100847.59;8323494;28;20030;-51
2022/12/05 09:22:22;;;;;;;57.90;23.75;;;;;;;2.40;100.00;100851.91;8307561;28;20080;-49
2022/12/05 09:26:24;;;;;;;55.85;24.20;;;;;;;2.45;100.00;100852.53;8294806;28;20502;-51
2022/12/05 09:30:25;;;;;;;52.28;23.88;;;;;;;2.50;100.00;100853.13;8313855;28;20060;-53
2022/12/05 09:34:26;;;;;;;60.05;25.27;;;;;;;2.54;100.00;100859.19;8299173;28;20037;-51
2022/12/05 09:38:26;;;;;;;65.03;25.63;;;;;;;2.68;100.00;100865.50;8304558;28;20034;-51
2022/12/05 09:42:39;;;;;;;59.05;26.15;;;;;;;2.64;100.00;100871.97;8292672;28;20050;-49
2022/12/05 09:46:52;;;;;;;58.77;25.30;;;;;;;2.79;100.00;100868.47;8291992;28;20049;-49
2022/12/05 09:50:59;;;;;;;64.95;27.73;;;;;;;2.77;100.00;100867.66;8301960;28;20311;-50
2022/12/05 09:55:05;;;;;;;65.13;28.65;;;;;;;2.80;100.00;100866.66;8292253;28;20388;-49
2022/12/05 09:59:14;;;;;;;66.63;27.05;;;;;;;2.82;100.00;100873.63;8296770;28;20123;-48
2022/12/05 10:03:45;;;;;;;67.32;29.55;;;;;;;2.87;100.00;100879.56;8291954;28;20073;-48
2022/12/05 10:08:03;;;;;;;61.40;28.15;;;;;;;2.89;100.00;100875.00;8291737;28;20041;-48
2022/12/05 10:12:36;;;;;;;72.05;29.38;;;;;;;2.89;100.00;100882.16;8291890;28;20100;-48
2022/12/05 10:16:44;;;;;;;61.92;29.95;;;;;;;3.10;100.00;100875.63;8287367;28;20030;-51
2022/12/05 10:21:01;;;;;;;66.80;28.55;;;;;;;3.06;100.00;100874.97;8302049;28;20046;-51
2022/12/05 10:25:04;;;;;;;66.63;28.15;;;;;;;3.01;100.00;100877.00;8296405;28;20050;-49
2022/12/05 10:29:31;;;;;;;63.03;27.53;;;;;;;3.00;100.00;100874.44;8297573;28;20108;-49
2022/12/05 10:33:38;;;;;;;64.90;28.75;;;;;;;3.10;100.00;100870.28;8290012;28;20040;-48
2022/12/05 10:37:38;;;;;;;63.47;28.98;;;;;;;3.06;100.00;100863.41;8293982;28;20514;-49
2022/12/05 10:41:39;;;;;;;67.18;28.95;;;;;;;2.99;100.00;100873.56;8293641;28;20670;-50
2022/12/05 10:45:43;;;;;;;63.08;27.05;;;;;;;2.96;100.00;100872.88;8316558;28;20041;-48
2022/12/05 10:49:44;;;;;;;66.28;29.95;;;;;;;3.01;100.00;100874.34;8319073;28;20422;-48
2022/12/05 10:53:49;;;;;;;59.88;26.98;;;;;;;2.94;100.00;100874.75;8321669;28;20033;-48
2022/12/05 10:57:52;;;;;;;56.67;27.40;;;;;;;2.91;100.00;100880.28;8316094;28;20037;-48
2022/12/05 11:01:55;;;;;;;65.85;30.05;;;;;;;2.94;100.00;100874.75;8314611;28;20471;-48
2022/12/05 11:05:59;;;;;;;71.90;29.90;;;;;;;2.96;100.00;100873.72;8312213;28;20076;-48
2022/12/05 11:10:03;;;;;;;72.85;29.23;;;;;;;2.93;100.00;100876.56;8316946;28;20061;-50
2022/12/05 11:14:06;;;;;;;61.15;26.05;;;;;;;2.96;100.00;100879.06;8313461;28;20046;-48
2022/12/05 11:18:29;;;;;;;65.88;27.70;;;;;;;2.97;100.00;100880.81;8312865;28;20407;-48
2022/12/05 11:22:32;;;;;;;59.25;27.38;;;;;;;2.96;100.00;100879.06;8310462;28;20439;-48
2022/12/05 11:26:36;;;;;;;64.35;29.23;;;;;;;3.09;100.00;100889.94;8308415;28;20049;-47
2022/12/05 11:30:36;;;;;;;57.53;27.07;;;;;;;3.04;100.00;100882.19;8309065;28;20095;-49
2022/12/05 11:34:46;;;;;;;54.83;26.58;;;;;;;3.08;100.00;100883.72;8303274;28;20135;-48
2022/12/05 11:38:47;;;;;;;61.20;26.63;;;;;;;3.12;100.00;100890.66;8307535;28;20796;-47
2022/12/05 11:43:28;;;;;;;59.35;27.05;;;;;;;3.16;100.00;100876.16;8316962;28;20040;-48
2022/12/05 11:47:58;;;;;;;61.90;25.92;;;;;;;3.14;100.00;100866.53;8302383;28;20049;-48
2022/12/05 11:56:37;;;;;;;60.30;26.80;;;;;;;3.22;100.00;100858.94;8371078;27;20383;-47
2022/12/05 12:01:07;;;;;;;55.28;26.77;;;;;;;3.16;100.00;100856.59;8363341;28;20071;-50
2022/12/05 12:10:12;;;;;;;61.05;26.75;;;;;;;3.27;100.00;100859.53;8290074;27;20979;-47
2022/12/05 12:14:38;;;;;;;57.47;26.40;;;;;;;3.28;100.00;100864.81;8297006;28;20045;-47
2022/12/05 12:19:18;;;;;;;60.58;26.85;;;;;;;3.28;100.00;100864.81;8304415;28;20288;-51
2022/12/05 12:28:37;;;;;;;59.20;27.02;;;;;;;3.31;100.00;100863.75;8388264;27;20423;-49
2022/12/05 12:33:08;;;;;;;48.85;24.88;;;;;;;3.33;100.00;100856.53;8344618;28;20354;-47
2022/12/05 12:37:45;;;;;;;51.50;24.10;;;;;;;3.36;100.00;100857.19;8340748;28;20065;-47
2022/12/05 12:42:26;;;;;;;58.08;25.15;;;;;;;3.49;100.00;100855.56;8332413;28;20406;-47
2022/12/05 12:46:51;;;;;;;48.95;25.80;;;;;;;3.58;100.00;100852.38;8340680;28;20084;-47
2022/12/05 12:50:54;;;;;;;42.65;22.45;;;;;;;3.58;100.00;100852.38;8344477;28;20056;-47
2022/12/05 12:55:13;;;;;;;44.95;22.52;;;;;;;3.58;100.00;100855.03;8329538;28;20040;-48
2022/12/05 12:59:45;;;;;;;42.65;21.75;;;;;;;3.56;100.00;100851.59;8319162;28;20037;-49
2022/12/05 13:04:01;;;;;;;43.53;21.92;;;;;;;3.58;100.00;100852.38;8332725;28;20044;-49
2022/12/05 13:08:12;;;;;;;50.67;21.85;;;;;;;3.51;100.00;100850.13;8323228;28;20126;-49
2022/12/05 13:12:20;;;;;;;44.08;21.52;;;;;;;3.50;100.00;100854.59;8337736;28;20037;-50
2022/12/05 13:16:26;;;;;;;42.30;22.45;;;;;;;3.49;100.00;100854.69;8340584;28;20037;-49
2022/12/05 13:20:31;;;;;;;48.80;22.33;;;;;;;3.42;100.00;100843.50;8344015;28;20053;-47
2022/12/05 13:24:32;;;;;;;44.90;22.77;;;;;;;3.32;100.00;100844.97;8346557;28;20090;-48
2022/12/05 13:28:44;;;;;;;44.63;23.65;;;;;;;3.38;100.00;100844.63;8333943;28;20487;-48
2022/12/05 13:32:45;;;;;;;48.45;24.75;;;;;;;3.43;100.00;100853.25;8337022;28;20039;-48
2022/12/05 13:42:15;;;;;;;46.60;24.08;;;;;;;3.49;100.00;100865.38;8296756;28;20057;-48
2022/12/05 13:45:28;;;;;;;47.40;23.20;;;;;;;3.43;100.00;100866.59;8292574;28;20105;-50
2022/12/05 13:49:42;;;;;;;47.20;24.10;;;;;;;3.51;100.00;100866.19;8289195;28;20038;-49
2022/12/05 13:53:46;;;;;;;47.35;23.92;;;;;;;3.48;100.00;100879.72;8284418;28;20116;-49
2022/12/05 13:57:50;;;;;;;49.30;23.95;;;;;;;3.42;100.00;100875.56;8315792;28;20065;-49
2022/12/05 14:01:51;;;;;;;47.67;23.45;;;;;;;3.46;100.00;100873.59;8319035;28;20069;-49
2022/12/05 14:05:53;;;;;;;48.67;23.27;;;;;;;3.36;100.00;100878.56;8302653;28;20266;-49
2022/12/05 14:09:55;;;;;;;49.33;25.58;;;;;;;3.43;100.00;100882.66;8305834;28;20071;-49
2022/12/05 14:13:56;;;;;;;45.60;23.85;;;;;;;3.37;100.00;100882.13;8313140;28;20135;-51
2022/12/05 14:18:27;;;;;;;44.88;23.95;;;;;;;3.32;100.00;100882.38;8304008;28;20052;-50
2022/12/05 14:22:56;;;;;;;50.53;25.73;;;;;;;3.39;100.00;100878.41;8310838;28;20419;-49
2022/12/05 14:27:11;;;;;;;46.97;22.45;;;;;;;3.37;100.00;100883.00;8315156;28;20077;-48
2022/12/05 14:31:39;;;;;;;50.97;25.30;;;;;;;3.35;100.00;100887.53;8316765;28;20458;-48
2022/12/05 14:35:45;;;;;;;108.72;46.42;;;;;;;3.40;100.00;100884.63;8315536;28;20041;-49
2022/12/05 14:39:50;;;;;;;45.13;23.73;;;;;;;3.36;100.00;100883.91;8294159;28;20041;-49
2022/12/05 14:43:53;;;;;;;54.40;24.70;;;;;;;3.32;100.00;100877.03;8315865;28;20038;-49
2022/12/05 14:47:57;;;;;;;50.13;23.67;;;;;;;3.30;100.00;100878.91;8312527;28;20762;-48
2022/12/05 14:51:58;;;;;;;52.28;24.83;;;;;;;3.36;100.00;100881.25;8313142;28;20399;-48
2022/12/05 14:56:05;;;;;;;47.00;23.88;;;;;;;3.33;100.00;100884.09;8301673;28;20070;-50
2022/12/05 15:00:07;;;;;;;50.65;24.58;;;;;;;3.40;100.00;100884.63;8289283;28;20037;-48
2022/12/05 15:04:17;;;;;;;50.58;23.73;;;;;;;3.34;100.00;100890.31;8312382;28;20495;-49
2022/12/05 15:08:20;;;;;;;50.25;24.85;;;;;;;3.31;100.00;100890.47;8304236;28;20042;-49
2022/12/05 15:12:40;;;;;;;50.00;24.63;;;;;;;3.32;100.00;100887.72;8314300;28;20046;-50
2022/12/05 15:16:44;;;;;;;50.63;24.92;;;;;;;3.31;100.00;100891.34;8306623;28;20034;-48
2022/12/05 15:20:59;;;;;;;50.60;24.67;;;;;;;3.32;100.00;100886.84;8294474;28;20158;-49
2022/12/05 15:25:21;;;;;;;53.55;24.27;;;;;;;3.25;100.00;100901.50;8301662;28;20080;-49
2022/12/05 15:33:34;;;;;;;56.50;27.27;;;;;;;3.28;100.00;100912.88;8365484;27;20379;-47
2022/12/05 15:37:49;;;;;;;58.90;28.20;;;;;;;3.24;100.00;100910.47;8371370;28;20052;-48
2022/12/05 15:41:52;;;;;;;56.25;28.83;;;;;;;3.22;100.00;100915.91;8363147;28;20460;-48
2022/12/05 15:47:00;;;;;;;62.20;28.83;;;;;;;3.21;100.00;100919.53;8349016;28;20090;-48
2022/12/05 15:51:02;;;;;;;64.63;29.30;;;;;;;3.15;100.00;100927.88;8354586;28;20498;-48
2022/12/05 15:55:11;;;;;;;55.35;26.50;;;;;;;3.13;100.00;100929.75;8365789;28;20057;-50
2022/12/05 15:59:20;;;;;;;57.95;27.40;;;;;;;3.07;100.00;100935.44;8357893;28;20068;-49
2022/12/05 16:03:33;;;;;;;54.60;26.88;;;;;;;3.01;100.00;100929.56;8364684;28;20229;-50
2022/12/05 16:07:34;;;;;;;49.80;24.20;;;;;;;3.10;100.00;100929.94;8352712;28;20041;-52
2022/12/05 16:11:34;;;;;;;45.50;23.35;;;;;;;3.02;100.00;100937.47;8356096;28;20037;-48
2022/12/05 16:15:35;;;;;;;48.03;22.92;;;;;;;3.02;100.00;100940.16;8362164;28;20245;-48
2022/12/05 16:19:36;;;;;;;42.08;23.23;;;;;;;2.93;100.00;100937.97;8358688;28;20041;-48
2022/12/05 16:23:36;;;;;;;43.28;22.15;;;;;;;2.98;100.00;100941.28;8361819;28;20041;-49
2022/12/05 16:27:38;;;;;;;43.05;22.85;;;;;;;2.93;100.00;100937.97;8363165;28;20555;-48
2022/12/05 16:31:39;;;;;;;42.85;23.52;;;;;;;2.93;100.00;100954.00;8355735;28;20485;-48
2022/12/05 16:35:44;;;;;;;41.85;21.98;;;;;;;2.89;100.00;100949.78;8363103;28;20131;-48
2022/12/05 16:39:45;;;;;;;40.40;20.35;;;;;;;2.87;100.00;100953.47;8358408;28;20425;-48
2022/12/05 16:43:46;;;;;;;54.30;26.88;;;;;;;2.83;100.00;100955.44;8340804;28;20275;-48
2022/12/05 16:52:17;;;;;;;36.88;21.48;;;;;;;2.74;100.00;100961.25;8479194;27;20346;-48
2022/12/05 16:56:29;;;;;;;39.47;20.17;;;;;;;2.65;100.00;100964.41;8476777;27;20065;-50
2022/12/05 17:00:30;;;;;;;37.95;19.88;;;;;;;2.61;100.00;100962.84;8472580;27;20580;-49
2022/12/05 17:04:30;;;;;;;39.85;21.02;;;;;;;2.65;100.00;100969.75;8471817;27;20043;-51
2022/12/05 17:08:31;;;;;;;45.03;22.23;;;;;;;2.64;100.00;100957.34;8474038;27;20112;-49
2022/12/05 17:12:32;;;;;;;48.28;24.88;;;;;;;2.56;100.00;100964.88;8478826;27;20039;-51
2022/12/05 17:16:32;;;;;;;50.42;23.63;;;;;;;2.53;100.00;100959.72;8481177;27;20039;-49
2022/12/05 17:20:36;;;;;;;54.40;26.00;;;;;;;2.55;100.00;100971.19;8476893;27;20047;-48
2022/12/05 17:24:36;;;;;;;49.08;25.30;;;;;;;2.52;100.00;100974.00;8475336;27;20430;-49
2022/12/05 17:28:37;;;;;;;50.88;23.33;;;;;;;2.51;100.00;100972.28;8475781;27;20323;-50
2022/12/05 17:32:38;;;;;;;52.38;26.05;;;;;;;2.42;100.00;100975.41;8476736;27;20031;-51
2022/12/05 17:36:38;;;;;;;57.35;25.38;;;;;;;2.40;100.00;100958.63;8477098;27;20435;-49
2022/12/05 17:40:39;;;;;;;46.78;24.77;;;;;;;2.43;100.00;100974.47;8476770;27;20043;-50
2022/12/05 17:44:40;;;;;;;57.85;26.92;;;;;;;2.34;100.00;100974.94;8481267;27;20488;-50
2022/12/05 17:48:41;;;;;;;58.55;26.88;;;;;;;2.31;100.00;100967.09;8476081;27;20085;-49
2022/12/05 17:52:42;;;;;;;58.83;26.88;;;;;;;2.29;100.00;100979.66;8478645;27;20035;-51
2022/12/05 17:56:43;;;;;;;69.00;29.23;;;;;;;2.26;100.00;100979.81;8481164;27;20039;-50
2022/12/05 18:00:45;;;;;;;63.03;30.23;;;;;;;2.29;100.00;100987.66;8470933;27;20042;-49
2022/12/05 18:04:46;;;;;;;67.57;31.65;;;;;;;2.28;100.00;100983.25;8453937;27;20031;-50
2022/12/05 18:08:46;;;;;;;72.97;33.10;;;;;;;2.25;100.00;100980.75;8452997;27;20046;-49
2022/12/05 18:12:47;;;;;;;73.70;31.67;;;;;;;2.26;100.00;100979.81;8449847;27;20134;-50
2022/12/05 18:16:48;;;;;;;70.22;32.45;;;;;;;2.21;100.00;100979.16;8452273;27;20454;-50
2022/12/05 18:20:48;;;;;;;75.95;33.13;;;;;;;2.26;100.00;100993.16;8452999;27;20343;-50
2022/12/05 18:24:49;;;;;;;78.65;34.58;;;;;;;2.26;100.00;100982.50;8447743;27;20042;-50
2022/12/05 18:28:52;;;;;;;71.95;32.67;;;;;;;2.28;100.00;100991.25;8389359;27;20046;-53
2022/12/05 18:32:53;;;;;;;74.38;34.97;;;;;;;2.29;100.00;100990.34;8397357;27;20179;-50
2022/12/05 18:36:54;;;;;;;96.40;42.33;;;;;;;2.28;100.00;100995.75;8432486;27;20036;-50
2022/12/05 18:41:00;;;;;;;89.60;38.42;;;;;;;2.30;100.00;101000.06;8452780;27;20946;-49
2022/12/05 18:45:01;;;;;;;71.50;34.35;;;;;;;2.30;100.00;101000.06;8431086;27;20040;-50
2022/12/05 18:49:03;;;;;;;66.05;31.02;;;;;;;2.31;100.00;101001.78;8450884;27;20092;-49
2022/12/05 18:53:04;;;;;;;59.30;30.52;;;;;;;2.38;100.00;101003.19;8452645;27;20553;-49
2022/12/05 18:57:05;;;;;;;55.80;28.02;;;;;;;2.38;100.00;101008.50;8432174;27;20112;-49
2022/12/05 19:01:08;;;;;;;62.85;28.77;;;;;;;2.41;100.00;101019.03;8397335;28;20036;-48
2022/12/05 19:05:09;;;;;;;61.85;30.02;;;;;;;2.42;100.00;101014.56;8417263;28;20210;-49
2022/12/05 19:09:14;;;;;;;57.10;27.10;;;;;;;2.48;100.00;101025.81;8420755;28;20044;-49
2022/12/05 19:13:18;;;;;;;51.72;25.65;;;;;;;2.50;100.00;101017.72;8418352;28;20043;-49
2022/12/05 19:17:19;;;;;;;;;;;;;;;2.47;100.00;101013.38;8403511;28;20045;-50
2022/12/05 19:21:19;;;;;;;53.78;25.60;;;;;;;2.53;100.00;101020.25;8412423;28;19969;-49